sensor_id;sensor_type;location;lat;lon;timestamp;temperature;humidity
25450;DHT22;13371;52.080;5.624;2023-06-24T00:02:11;22.00;90.20
25450;DHT22;13371;52.080;5.624;2023-06-24T00:04:37;21.90;90.20
25450;DHT22;13371;52.080;5.624;2023-06-24T00:07:02;21.90;90.40
25450;DHT22;13371;52.080;5.624;2023-06-24T00:09:29;21.90;90.30
25450;DHT22;13371;52.080;5.624;2023-06-24T00:11:55;21.80;90.50
25450;DHT22;13371;52.080;5.624;2023-06-24T00:14:22;21.70;90.70
25450;DHT22;13371;52.080;5.624;2023-06-24T00:16:50;21.70;90.80
25450;DHT22;13371;52.080;5.624;2023-06-24T00:19:20;21.70;90.70
25450;DHT22;13371;52.080;5.624;2023-06-24T00:21:47;21.50;90.90
25450;DHT22;13371;52.080;5.624;2023-06-24T00:24:13;21.50;91.10
25450;DHT22;13371;52.080;5.624;2023-06-24T00:26:39;21.60;91.20
25450;DHT22;13371;52.080;5.624;2023-06-24T00:29:04;21.50;91.30
25450;DHT22;13371;52.080;5.624;2023-06-24T00:31:30;21.30;91.40
25450;DHT22;13371;52.080;5.624;2023-06-24T00:33:55;21.40;91.40
25450;DHT22;13371;52.080;5.624;2023-06-24T00:36:21;21.50;91.30
25450;DHT22;13371;52.080;5.624;2023-06-24T00:38:47;21.50;91.40
25450;DHT22;13371;52.080;5.624;2023-06-24T00:41:14;21.40;91.40
25450;DHT22;13371;52.080;5.624;2023-06-24T00:43:41;21.50;91.40
25450;DHT22;13371;52.080;5.624;2023-06-24T00:46:07;21.50;91.30
25450;DHT22;13371;52.080;5.624;2023-06-24T00:48:33;21.40;91.50
25450;DHT22;13371;52.080;5.624;2023-06-24T00:50:58;21.40;91.40
25450;DHT22;13371;52.080;5.624;2023-06-24T00:53:24;21.60;91.40
25450;DHT22;13371;52.080;5.624;2023-06-24T00:55:51;21.60;91.30
25450;DHT22;13371;52.080;5.624;2023-06-24T00:58:18;21.50;91.60
25450;DHT22;13371;52.080;5.624;2023-06-24T01:00:47;21.60;91.60
25450;DHT22;13371;52.080;5.624;2023-06-24T01:03:22;21.90;91.10
25450;DHT22;13371;52.080;5.624;2023-06-24T01:05:48;21.40;91.70
25450;DHT22;13371;52.080;5.624;2023-06-24T01:08:15;21.40;92.30
25450;DHT22;13371;52.080;5.624;2023-06-24T01:10:41;21.20;92.30
25450;DHT22;13371;52.080;5.624;2023-06-24T01:13:07;21.20;92.50
25450;DHT22;13371;52.080;5.624;2023-06-24T01:15:33;21.10;93.40
25450;DHT22;13371;52.080;5.624;2023-06-24T01:20:49;20.90;93.50
25450;DHT22;13371;52.080;5.624;2023-06-24T01:31:31;21.20;92.70
25450;DHT22;13371;52.080;5.624;2023-06-24T01:37:00;21.40;92.60
25450;DHT22;13371;52.080;5.624;2023-06-24T01:39:33;21.20;93.10
25450;DHT22;13371;52.080;5.624;2023-06-24T01:42:06;21.10;93.20
25450;DHT22;13371;52.080;5.624;2023-06-24T01:44:33;21.30;93.10
25450;DHT22;13371;52.080;5.624;2023-06-24T01:47:01;21.30;93.10
25450;DHT22;13371;52.080;5.624;2023-06-24T01:49:29;21.40;93.00
25450;DHT22;13371;52.080;5.624;2023-06-24T01:51:57;21.40;93.00
25450;DHT22;13371;52.080;5.624;2023-06-24T01:54:26;21.40;92.90
25450;DHT22;13371;52.080;5.624;2023-06-24T01:56:54;21.40;92.90
25450;DHT22;13371;52.080;5.624;2023-06-24T01:59:21;21.40;92.90
25450;DHT22;13371;52.080;5.624;2023-06-24T02:01:48;21.40;93.00
25450;DHT22;13371;52.080;5.624;2023-06-24T02:04:17;21.40;92.90
25450;DHT22;13371;52.080;5.624;2023-06-24T02:06:44;21.50;92.90
25450;DHT22;13371;52.080;5.624;2023-06-24T02:09:11;21.60;92.90
25450;DHT22;13371;52.080;5.624;2023-06-24T02:11:37;21.60;92.80
25450;DHT22;13371;52.080;5.624;2023-06-24T02:14:04;21.70;92.80
25450;DHT22;13371;52.080;5.624;2023-06-24T02:16:31;21.60;92.80
25450;DHT22;13371;52.080;5.624;2023-06-24T02:18:58;21.40;93.10
25450;DHT22;13371;52.080;5.624;2023-06-24T02:21:24;21.50;92.90
25450;DHT22;13371;52.080;5.624;2023-06-24T02:23:52;21.60;92.90
25450;DHT22;13371;52.080;5.624;2023-06-24T02:26:18;21.80;92.80
25450;DHT22;13371;52.080;5.624;2023-06-24T02:28:48;21.50;92.70
25450;DHT22;13371;52.080;5.624;2023-06-24T02:31:15;21.30;93.10
25450;DHT22;13371;52.080;5.624;2023-06-24T02:33:41;21.30;93.10
25450;DHT22;13371;52.080;5.624;2023-06-24T02:36:07;21.30;93.20
25450;DHT22;13371;52.080;5.624;2023-06-24T02:38:32;21.60;93.10
25450;DHT22;13371;52.080;5.624;2023-06-24T02:40:58;21.50;92.90
25450;DHT22;13371;52.080;5.624;2023-06-24T02:43:23;21.30;93.20
25450;DHT22;13371;52.080;5.624;2023-06-24T02:45:49;21.20;93.40
25450;DHT22;13371;52.080;5.624;2023-06-24T02:48:17;21.20;93.40
25450;DHT22;13371;52.080;5.624;2023-06-24T02:50:43;21.30;93.40
25450;DHT22;13371;52.080;5.624;2023-06-24T02:53:11;21.20;93.30
25450;DHT22;13371;52.080;5.624;2023-06-24T02:55:37;21.10;93.40
25450;DHT22;13371;52.080;5.624;2023-06-24T02:58:05;21.00;93.60
25450;DHT22;13371;52.080;5.624;2023-06-24T03:00:34;20.90;93.50
25450;DHT22;13371;52.080;5.624;2023-06-24T03:03:01;20.90;93.50
25450;DHT22;13371;52.080;5.624;2023-06-24T03:05:28;21.00;93.40
25450;DHT22;13371;52.080;5.624;2023-06-24T03:07:54;20.80;93.70
25450;DHT22;13371;52.080;5.624;2023-06-24T03:10:20;20.80;93.80
25450;DHT22;13371;52.080;5.624;2023-06-24T03:12:48;20.70;94.10
25450;DHT22;13371;52.080;5.624;2023-06-24T03:15:13;20.60;94.40
25450;DHT22;13371;52.080;5.624;2023-06-24T03:17:39;20.70;94.10
25450;DHT22;13371;52.080;5.624;2023-06-24T03:20:05;20.70;94.10
25450;DHT22;13371;52.080;5.624;2023-06-24T03:22:32;20.80;94.00
25450;DHT22;13371;52.080;5.624;2023-06-24T03:24:58;20.80;93.80
25450;DHT22;13371;52.080;5.624;2023-06-24T03:27:24;20.60;93.90
25450;DHT22;13371;52.080;5.624;2023-06-24T03:29:50;20.50;94.50
25450;DHT22;13371;52.080;5.624;2023-06-24T03:32:15;20.40;94.50
25450;DHT22;13371;52.080;5.624;2023-06-24T03:34:41;20.50;94.70
25450;DHT22;13371;52.080;5.624;2023-06-24T03:37:06;20.50;94.50
25450;DHT22;13371;52.080;5.624;2023-06-24T03:39:32;20.50;94.40
25450;DHT22;13371;52.080;5.624;2023-06-24T03:41:58;20.50;94.40
25450;DHT22;13371;52.080;5.624;2023-06-24T03:44:23;20.40;94.70
25450;DHT22;13371;52.080;5.624;2023-06-24T03:46:49;20.40;94.70
25450;DHT22;13371;52.080;5.624;2023-06-24T03:49:14;20.40;94.80
25450;DHT22;13371;52.080;5.624;2023-06-24T03:51:40;20.40;94.70
25450;DHT22;13371;52.080;5.624;2023-06-24T03:54:06;20.40;94.80
25450;DHT22;13371;52.080;5.624;2023-06-24T03:56:31;20.20;95.20
25450;DHT22;13371;52.080;5.624;2023-06-24T03:58:57;20.30;95.20
25450;DHT22;13371;52.080;5.624;2023-06-24T04:01:22;20.40;94.60
25450;DHT22;13371;52.080;5.624;2023-06-24T04:03:48;20.30;94.90
25450;DHT22;13371;52.080;5.624;2023-06-24T04:06:13;20.30;95.00
25450;DHT22;13371;52.080;5.624;2023-06-24T04:08:39;20.50;94.80
25450;DHT22;13371;52.080;5.624;2023-06-24T04:11:05;20.40;94.60
25450;DHT22;13371;52.080;5.624;2023-06-24T04:13:32;20.30;95.20
25450;DHT22;13371;52.080;5.624;2023-06-24T04:15:58;20.00;95.70
25450;DHT22;13371;52.080;5.624;2023-06-24T04:18:24;20.00;95.80
25450;DHT22;13371;52.080;5.624;2023-06-24T04:20:49;20.10;95.70
25450;DHT22;13371;52.080;5.624;2023-06-24T04:23:15;20.00;95.80
25450;DHT22;13371;52.080;5.624;2023-06-24T04:25:41;19.90;96.50
25450;DHT22;13371;52.080;5.624;2023-06-24T04:28:07;19.90;96.50
25450;DHT22;13371;52.080;5.624;2023-06-24T04:30:33;20.00;96.40
25450;DHT22;13371;52.080;5.624;2023-06-24T04:33:01;19.80;97.00
25450;DHT22;13371;52.080;5.624;2023-06-24T04:35:26;20.00;96.80
25450;DHT22;13371;52.080;5.624;2023-06-24T04:37:52;20.10;96.50
25450;DHT22;13371;52.080;5.624;2023-06-24T04:40:18;20.20;96.40
25450;DHT22;13371;52.080;5.624;2023-06-24T04:42:45;20.20;96.50
25450;DHT22;13371;52.080;5.624;2023-06-24T04:45:11;20.10;96.30
25450;DHT22;13371;52.080;5.624;2023-06-24T04:47:36;20.10;96.80
25450;DHT22;13371;52.080;5.624;2023-06-24T04:50:02;20.10;96.60
25450;DHT22;13371;52.080;5.624;2023-06-24T04:52:28;20.40;96.20
25450;DHT22;13371;52.080;5.624;2023-06-24T04:54:53;20.10;96.50
25450;DHT22;13371;52.080;5.624;2023-06-24T04:57:30;19.70;97.70
25450;DHT22;13371;52.080;5.624;2023-06-24T04:59:56;19.90;97.80
25450;DHT22;13371;52.080;5.624;2023-06-24T05:02:22;19.70;98.30
25450;DHT22;13371;52.080;5.624;2023-06-24T05:04:49;20.00;97.80
25450;DHT22;13371;52.080;5.624;2023-06-24T05:07:14;20.20;97.10
25450;DHT22;13371;52.080;5.624;2023-06-24T05:09:40;20.30;97.00
25450;DHT22;13371;52.080;5.624;2023-06-24T05:12:06;20.40;96.70
25450;DHT22;13371;52.080;5.624;2023-06-24T05:14:34;20.60;96.50
25450;DHT22;13371;52.080;5.624;2023-06-24T05:17:00;20.60;96.40
25450;DHT22;13371;52.080;5.624;2023-06-24T05:19:25;20.60;96.40
25450;DHT22;13371;52.080;5.624;2023-06-24T05:21:51;20.70;96.10
25450;DHT22;13371;52.080;5.624;2023-06-24T05:24:17;20.80;95.90
25450;DHT22;13371;52.080;5.624;2023-06-24T05:26:44;20.80;95.20
25450;DHT22;13371;52.080;5.624;2023-06-24T05:29:09;21.00;94.80
25450;DHT22;13371;52.080;5.624;2023-06-24T05:31:37;21.00;94.40
25450;DHT22;13371;52.080;5.624;2023-06-24T05:34:03;21.10;93.90
25450;DHT22;13371;52.080;5.624;2023-06-24T05:36:28;21.20;93.00
25450;DHT22;13371;52.080;5.624;2023-06-24T05:38:54;21.30;93.40
25450;DHT22;13371;52.080;5.624;2023-06-24T05:41:19;21.40;93.10
25450;DHT22;13371;52.080;5.624;2023-06-24T05:43:45;21.50;92.40
25450;DHT22;13371;52.080;5.624;2023-06-24T05:46:11;21.50;92.40
25450;DHT22;13371;52.080;5.624;2023-06-24T05:48:37;21.30;92.50
25450;DHT22;13371;52.080;5.624;2023-06-24T05:51:02;21.70;92.60
25450;DHT22;13371;52.080;5.624;2023-06-24T05:53:28;21.80;92.50
25450;DHT22;13371;52.080;5.624;2023-06-24T05:55:54;22.10;92.10
25450;DHT22;13371;52.080;5.624;2023-06-24T05:58:19;22.20;91.80
25450;DHT22;13371;52.080;5.624;2023-06-24T06:00:48;22.40;91.50
25450;DHT22;13371;52.080;5.624;2023-06-24T06:03:19;22.20;91.10
25450;DHT22;13371;52.080;5.624;2023-06-24T06:05:52;22.40;90.50
25450;DHT22;13371;52.080;5.624;2023-06-24T06:08:18;22.40;90.40
25450;DHT22;13371;52.080;5.624;2023-06-24T06:10:46;22.30;90.70
25450;DHT22;13371;52.080;5.624;2023-06-24T06:13:12;22.40;90.40
25450;DHT22;13371;52.080;5.624;2023-06-24T06:15:56;22.40;90.00
25450;DHT22;13371;52.080;5.624;2023-06-24T06:18:22;22.60;90.40
25450;DHT22;13371;52.080;5.624;2023-06-24T06:20:47;22.50;90.00
25450;DHT22;13371;52.080;5.624;2023-06-24T06:23:13;22.60;90.00
25450;DHT22;13371;52.080;5.624;2023-06-24T06:25:39;22.70;89.40
25450;DHT22;13371;52.080;5.624;2023-06-24T06:28:05;22.60;89.60
25450;DHT22;13371;52.080;5.624;2023-06-24T06:30:30;22.70;89.60
25450;DHT22;13371;52.080;5.624;2023-06-24T06:32:56;22.70;89.50
25450;DHT22;13371;52.080;5.624;2023-06-24T06:35:22;22.80;89.10
25450;DHT22;13371;52.080;5.624;2023-06-24T06:37:47;23.00;87.70
25450;DHT22;13371;52.080;5.624;2023-06-24T06:40:21;23.10;88.70
25450;DHT22;13371;52.080;5.624;2023-06-24T06:42:47;23.30;87.90
25450;DHT22;13371;52.080;5.624;2023-06-24T06:45:12;23.50;86.50
25450;DHT22;13371;52.080;5.624;2023-06-24T06:47:41;23.60;86.80
25450;DHT22;13371;52.080;5.624;2023-06-24T06:50:19;23.70;85.90
25450;DHT22;13371;52.080;5.624;2023-06-24T06:52:48;23.80;84.80
25450;DHT22;13371;52.080;5.624;2023-06-24T06:55:22;23.50;86.80
25450;DHT22;13371;52.080;5.624;2023-06-24T06:57:48;23.70;86.00
25450;DHT22;13371;52.080;5.624;2023-06-24T07:00:14;24.00;86.10
25450;DHT22;13371;52.080;5.624;2023-06-24T07:02:43;24.10;84.80
25450;DHT22;13371;52.080;5.624;2023-06-24T07:05:08;24.10;84.50
25450;DHT22;13371;52.080;5.624;2023-06-24T07:07:39;24.30;85.00
25450;DHT22;13371;52.080;5.624;2023-06-24T07:10:05;24.20;83.60
25450;DHT22;13371;52.080;5.624;2023-06-24T07:12:31;24.30;84.70
25450;DHT22;13371;52.080;5.624;2023-06-24T07:14:57;24.50;83.20
25450;DHT22;13371;52.080;5.624;2023-06-24T07:17:22;24.70;83.10
25450;DHT22;13371;52.080;5.624;2023-06-24T07:19:48;24.80;81.90
25450;DHT22;13371;52.080;5.624;2023-06-24T07:22:14;24.50;81.40
25450;DHT22;13371;52.080;5.624;2023-06-24T07:24:41;24.40;81.30
25450;DHT22;13371;52.080;5.624;2023-06-24T07:27:07;24.30;81.80
25450;DHT22;13371;52.080;5.624;2023-06-24T07:29:32;24.40;82.30
25450;DHT22;13371;52.080;5.624;2023-06-24T07:31:58;24.60;81.50
25450;DHT22;13371;52.080;5.624;2023-06-24T07:34:24;24.50;82.40
25450;DHT22;13371;52.080;5.624;2023-06-24T07:36:49;24.80;81.50
25450;DHT22;13371;52.080;5.624;2023-06-24T07:39:16;24.90;79.20
25450;DHT22;13371;52.080;5.624;2023-06-24T07:41:42;25.30;80.40
25450;DHT22;13371;52.080;5.624;2023-06-24T07:44:08;25.60;77.50
25450;DHT22;13371;52.080;5.624;2023-06-24T07:46:34;25.70;76.10
25450;DHT22;13371;52.080;5.624;2023-06-24T07:49:00;25.50;77.50
25450;DHT22;13371;52.080;5.624;2023-06-24T07:51:26;25.60;75.00
25450;DHT22;13371;52.080;5.624;2023-06-24T07:53:51;25.60;72.70
25450;DHT22;13371;52.080;5.624;2023-06-24T07:56:17;25.70;72.30
25450;DHT22;13371;52.080;5.624;2023-06-24T07:58:43;25.60;70.40
25450;DHT22;13371;52.080;5.624;2023-06-24T08:01:09;25.60;71.30
25450;DHT22;13371;52.080;5.624;2023-06-24T08:03:34;26.00;72.10
25450;DHT22;13371;52.080;5.624;2023-06-24T08:06:02;26.20;71.30
25450;DHT22;13371;52.080;5.624;2023-06-24T08:08:28;25.90;72.60
25450;DHT22;13371;52.080;5.624;2023-06-24T08:10:53;26.00;74.80
25450;DHT22;13371;52.080;5.624;2023-06-24T08:13:19;26.20;72.90
25450;DHT22;13371;52.080;5.624;2023-06-24T08:15:44;26.30;72.70
25450;DHT22;13371;52.080;5.624;2023-06-24T08:18:10;26.50;73.10
25450;DHT22;13371;52.080;5.624;2023-06-24T08:20:36;26.80;71.80
25450;DHT22;13371;52.080;5.624;2023-06-24T08:23:02;26.80;71.20
25450;DHT22;13371;52.080;5.624;2023-06-24T08:25:27;26.60;71.30
25450;DHT22;13371;52.080;5.624;2023-06-24T08:27:53;26.70;71.40
25450;DHT22;13371;52.080;5.624;2023-06-24T08:30:19;26.30;72.30
25450;DHT22;13371;52.080;5.624;2023-06-24T08:32:45;26.70;71.30
25450;DHT22;13371;52.080;5.624;2023-06-24T08:35:10;27.00;69.40
25450;DHT22;13371;52.080;5.624;2023-06-24T08:37:37;27.10;68.10
25450;DHT22;13371;52.080;5.624;2023-06-24T08:40:03;27.20;67.30
25450;DHT22;13371;52.080;5.624;2023-06-24T08:42:32;27.20;67.00
25450;DHT22;13371;52.080;5.624;2023-06-24T08:44:58;27.50;67.80
25450;DHT22;13371;52.080;5.624;2023-06-24T08:47:24;27.40;66.80
25450;DHT22;13371;52.080;5.624;2023-06-24T08:49:59;27.20;68.20
25450;DHT22;13371;52.080;5.624;2023-06-24T08:52:30;27.10;69.50
25450;DHT22;13371;52.080;5.624;2023-06-24T08:54:59;27.30;69.30
25450;DHT22;13371;52.080;5.624;2023-06-24T08:57:25;27.60;69.60
25450;DHT22;13371;52.080;5.624;2023-06-24T08:59:50;27.60;69.60
25450;DHT22;13371;52.080;5.624;2023-06-24T09:02:16;27.90;68.00
25450;DHT22;13371;52.080;5.624;2023-06-24T09:04:42;27.20;68.70
25450;DHT22;13371;52.080;5.624;2023-06-24T09:07:08;27.40;68.20
25450;DHT22;13371;52.080;5.624;2023-06-24T09:09:44;27.50;66.00
25450;DHT22;13371;52.080;5.624;2023-06-24T09:12:12;27.70;68.00
25450;DHT22;13371;52.080;5.624;2023-06-24T09:14:38;27.90;67.10
25450;DHT22;13371;52.080;5.624;2023-06-24T09:17:03;28.00;68.50
25450;DHT22;13371;52.080;5.624;2023-06-24T09:19:29;28.10;66.30
25450;DHT22;13371;52.080;5.624;2023-06-24T09:22:03;28.30;67.80
25450;DHT22;13371;52.080;5.624;2023-06-24T09:24:38;28.80;66.50
25450;DHT22;13371;52.080;5.624;2023-06-24T09:27:04;28.30;66.50
25450;DHT22;13371;52.080;5.624;2023-06-24T09:29:34;28.40;68.00
25450;DHT22;13371;52.080;5.624;2023-06-24T09:32:04;28.50;66.80
25450;DHT22;13371;52.080;5.624;2023-06-24T09:34:31;28.70;67.50
25450;DHT22;13371;52.080;5.624;2023-06-24T09:36:58;28.30;68.20
25450;DHT22;13371;52.080;5.624;2023-06-24T09:39:25;28.30;67.40
25450;DHT22;13371;52.080;5.624;2023-06-24T09:42:00;28.50;68.10
25450;DHT22;13371;52.080;5.624;2023-06-24T09:44:28;28.80;68.70
25450;DHT22;13371;52.080;5.624;2023-06-24T09:46:54;28.70;69.50
25450;DHT22;13371;52.080;5.624;2023-06-24T09:49:21;28.60;68.50
25450;DHT22;13371;52.080;5.624;2023-06-24T09:51:49;28.70;68.60
25450;DHT22;13371;52.080;5.624;2023-06-24T09:54:15;29.20;67.80
25450;DHT22;13371;52.080;5.624;2023-06-24T09:56:51;29.50;66.60
25450;DHT22;13371;52.080;5.624;2023-06-24T09:59:19;29.30;66.90
25450;DHT22;13371;52.080;5.624;2023-06-24T10:01:46;29.40;64.70
25450;DHT22;13371;52.080;5.624;2023-06-24T10:04:16;29.00;65.00
25450;DHT22;13371;52.080;5.624;2023-06-24T10:06:43;29.10;69.10
25450;DHT22;13371;52.080;5.624;2023-06-24T10:09:09;29.20;66.20
25450;DHT22;13371;52.080;5.624;2023-06-24T10:11:35;29.10;65.50
25450;DHT22;13371;52.080;5.624;2023-06-24T10:14:01;29.50;66.50
25450;DHT22;13371;52.080;5.624;2023-06-24T10:16:27;29.70;66.50
25450;DHT22;13371;52.080;5.624;2023-06-24T10:19:03;30.20;65.70
25450;DHT22;13371;52.080;5.624;2023-06-24T10:21:45;30.50;69.00
25450;DHT22;13371;52.080;5.624;2023-06-24T10:24:12;30.40;63.20
25450;DHT22;13371;52.080;5.624;2023-06-24T10:26:48;30.30;64.00
25450;DHT22;13371;52.080;5.624;2023-06-24T10:29:39;30.40;64.70
25450;DHT22;13371;52.080;5.624;2023-06-24T10:32:19;30.60;63.00
25450;DHT22;13371;52.080;5.624;2023-06-24T10:34:46;30.70;64.20
25450;DHT22;13371;52.080;5.624;2023-06-24T10:42:40;30.90;63.70
25450;DHT22;13371;52.080;5.624;2023-06-24T10:45:32;31.20;63.20
25450;DHT22;13371;52.080;5.624;2023-06-24T10:48:12;31.40;63.80
25450;DHT22;13371;52.080;5.624;2023-06-24T10:50:44;31.40;61.80
25450;DHT22;13371;52.080;5.624;2023-06-24T10:53:25;31.40;61.20
25450;DHT22;13371;52.080;5.624;2023-06-24T10:55:59;31.00;64.20
25450;DHT22;13371;52.080;5.624;2023-06-24T10:58:33;30.60;62.20
25450;DHT22;13371;52.080;5.624;2023-06-24T11:01:17;30.90;62.50
25450;DHT22;13371;52.080;5.624;2023-06-24T11:03:43;31.40;62.00
25450;DHT22;13371;52.080;5.624;2023-06-24T11:06:10;31.80;62.40
25450;DHT22;13371;52.080;5.624;2023-06-24T11:08:55;31.80;61.00
25450;DHT22;13371;52.080;5.624;2023-06-24T11:11:37;31.50;61.00
25450;DHT22;13371;52.080;5.624;2023-06-24T11:14:03;31.70;60.70
25450;DHT22;13371;52.080;5.624;2023-06-24T11:16:33;31.30;60.10
25450;DHT22;13371;52.080;5.624;2023-06-24T11:19:08;31.20;61.80
25450;DHT22;13371;52.080;5.624;2023-06-24T11:21:33;31.40;60.00
25450;DHT22;13371;52.080;5.624;2023-06-24T11:24:07;31.40;63.80
25450;DHT22;13371;52.080;5.624;2023-06-24T11:29:34;31.60;61.80
25450;DHT22;13371;52.080;5.624;2023-06-24T11:32:08;32.00;59.00
25450;DHT22;13371;52.080;5.624;2023-06-24T11:34:37;31.90;59.70
25450;DHT22;13371;52.080;5.624;2023-06-24T11:37:15;32.00;60.70
25450;DHT22;13371;52.080;5.624;2023-06-24T11:40:05;31.90;60.80
25450;DHT22;13371;52.080;5.624;2023-06-24T11:42:32;32.00;62.30
25450;DHT22;13371;52.080;5.624;2023-06-24T11:45:09;32.20;62.60
25450;DHT22;13371;52.080;5.624;2023-06-24T11:47:36;32.30;61.30
25450;DHT22;13371;52.080;5.624;2023-06-24T11:50:08;32.40;60.50
25450;DHT22;13371;52.080;5.624;2023-06-24T11:52:44;32.10;59.50
25450;DHT22;13371;52.080;5.624;2023-06-24T11:57:58;32.20;60.10
25450;DHT22;13371;52.080;5.624;2023-06-24T12:00:39;32.10;65.00
25450;DHT22;13371;52.080;5.624;2023-06-24T12:03:12;31.90;58.90
25450;DHT22;13371;52.080;5.624;2023-06-24T12:05:42;31.70;59.70
25450;DHT22;13371;52.080;5.624;2023-06-24T12:08:12;31.60;63.80
25450;DHT22;13371;52.080;5.624;2023-06-24T12:10:43;31.90;60.80
25450;DHT22;13371;52.080;5.624;2023-06-24T12:13:09;32.20;62.00
25450;DHT22;13371;52.080;5.624;2023-06-24T12:15:38;32.10;60.10
25450;DHT22;13371;52.080;5.624;2023-06-24T12:18:04;32.20;61.30
25450;DHT22;13371;52.080;5.624;2023-06-24T12:20:41;32.20;58.30
25450;DHT22;13371;52.080;5.624;2023-06-24T12:23:34;32.40;59.40
25450;DHT22;13371;52.080;5.624;2023-06-24T12:26:03;32.00;59.30
25450;DHT22;13371;52.080;5.624;2023-06-24T12:28:28;32.10;58.30
25450;DHT22;13371;52.080;5.624;2023-06-24T12:30:54;31.70;59.10
25450;DHT22;13371;52.080;5.624;2023-06-24T12:36:38;32.00;62.50
25450;DHT22;13371;52.080;5.624;2023-06-24T12:39:14;32.40;60.20
25450;DHT22;13371;52.080;5.624;2023-06-24T12:41:48;32.40;63.00
25450;DHT22;13371;52.080;5.624;2023-06-24T12:44:24;32.60;60.20
25450;DHT22;13371;52.080;5.624;2023-06-24T12:49:37;32.10;58.00
25450;DHT22;13371;52.080;5.624;2023-06-24T12:52:31;32.40;57.40
25450;DHT22;13371;52.080;5.624;2023-06-24T12:55:15;32.70;58.90
25450;DHT22;13371;52.080;5.624;2023-06-24T12:57:54;32.50;58.90
25450;DHT22;13371;52.080;5.624;2023-06-24T13:00:24;32.80;60.60
25450;DHT22;13371;52.080;5.624;2023-06-24T13:03:03;32.90;59.10
25450;DHT22;13371;52.080;5.624;2023-06-24T13:05:32;32.70;59.60
25450;DHT22;13371;52.080;5.624;2023-06-24T13:08:24;32.50;59.60
25450;DHT22;13371;52.080;5.624;2023-06-24T13:10:54;32.50;60.00
25450;DHT22;13371;52.080;5.624;2023-06-24T13:13:23;32.60;60.70
25450;DHT22;13371;52.080;5.624;2023-06-24T13:15:48;32.50;59.80
25450;DHT22;13371;52.080;5.624;2023-06-24T13:18:32;32.50;58.70
25450;DHT22;13371;52.080;5.624;2023-06-24T13:20:57;32.80;58.80
25450;DHT22;13371;52.080;5.624;2023-06-24T13:23:25;32.90;59.20
25450;DHT22;13371;52.080;5.624;2023-06-24T13:25:51;33.00;60.00
25450;DHT22;13371;52.080;5.624;2023-06-24T13:28:17;33.10;59.20
25450;DHT22;13371;52.080;5.624;2023-06-24T13:30:52;33.00;59.30
25450;DHT22;13371;52.080;5.624;2023-06-24T13:33:21;32.90;59.90
25450;DHT22;13371;52.080;5.624;2023-06-24T13:35:46;32.90;59.60
25450;DHT22;13371;52.080;5.624;2023-06-24T13:38:12;32.80;59.00
25450;DHT22;13371;52.080;5.624;2023-06-24T13:40:39;32.80;59.20
25450;DHT22;13371;52.080;5.624;2023-06-24T13:43:04;32.60;58.30
25450;DHT22;13371;52.080;5.624;2023-06-24T13:45:30;32.70;59.80
25450;DHT22;13371;52.080;5.624;2023-06-24T13:47:56;32.80;60.50
25450;DHT22;13371;52.080;5.624;2023-06-24T13:50:21;32.90;58.10
25450;DHT22;13371;52.080;5.624;2023-06-24T13:52:47;32.80;58.70
25450;DHT22;13371;52.080;5.624;2023-06-24T13:55:13;32.80;59.50
25450;DHT22;13371;52.080;5.624;2023-06-24T13:57:38;33.00;62.00
25450;DHT22;13371;52.080;5.624;2023-06-24T14:00:04;32.80;56.60
25450;DHT22;13371;52.080;5.624;2023-06-24T14:02:30;33.00;58.10
25450;DHT22;13371;52.080;5.624;2023-06-24T14:04:56;33.10;62.30
25450;DHT22;13371;52.080;5.624;2023-06-24T14:07:24;33.10;58.90
25450;DHT22;13371;52.080;5.624;2023-06-24T14:09:50;33.00;61.00
25450;DHT22;13371;52.080;5.624;2023-06-24T14:12:16;33.00;59.10
25450;DHT22;13371;52.080;5.624;2023-06-24T14:14:41;32.80;58.70
25450;DHT22;13371;52.080;5.624;2023-06-24T14:17:07;32.70;59.50
25450;DHT22;13371;52.080;5.624;2023-06-24T14:19:40;32.50;59.80
25450;DHT22;13371;52.080;5.624;2023-06-24T14:22:06;32.40;61.50
25450;DHT22;13371;52.080;5.624;2023-06-24T14:24:32;32.30;61.00
25450;DHT22;13371;52.080;5.624;2023-06-24T14:26:58;32.60;62.00
25450;DHT22;13371;52.080;5.624;2023-06-24T14:29:24;32.70;59.70
25450;DHT22;13371;52.080;5.624;2023-06-24T14:31:51;32.80;60.90
25450;DHT22;13371;52.080;5.624;2023-06-24T14:34:17;32.80;62.50
25450;DHT22;13371;52.080;5.624;2023-06-24T14:36:44;32.90;61.90
25450;DHT22;13371;52.080;5.624;2023-06-24T14:39:12;32.90;60.30
25450;DHT22;13371;52.080;5.624;2023-06-24T14:41:37;32.60;59.10
25450;DHT22;13371;52.080;5.624;2023-06-24T14:44:03;32.80;59.90
25450;DHT22;13371;52.080;5.624;2023-06-24T14:46:29;32.90;59.20
25450;DHT22;13371;52.080;5.624;2023-06-24T14:48:54;32.90;59.00
25450;DHT22;13371;52.080;5.624;2023-06-24T14:51:20;33.20;59.70
25450;DHT22;13371;52.080;5.624;2023-06-24T14:53:46;33.00;59.80
25450;DHT22;13371;52.080;5.624;2023-06-24T14:56:11;32.80;61.30
25450;DHT22;13371;52.080;5.624;2023-06-24T14:58:37;32.60;62.90
25450;DHT22;13371;52.080;5.624;2023-06-24T15:01:02;32.60;64.40
25450;DHT22;13371;52.080;5.624;2023-06-24T15:03:28;32.40;61.30
25450;DHT22;13371;52.080;5.624;2023-06-24T15:05:54;32.20;62.00
25450;DHT22;13371;52.080;5.624;2023-06-24T15:08:19;32.10;60.90
25450;DHT22;13371;52.080;5.624;2023-06-24T15:10:45;32.20;63.10
25450;DHT22;13371;52.080;5.624;2023-06-24T15:13:10;32.40;64.30
25450;DHT22;13371;52.080;5.624;2023-06-24T15:15:36;32.40;62.80
25450;DHT22;13371;52.080;5.624;2023-06-24T15:18:01;32.50;61.80
25450;DHT22;13371;52.080;5.624;2023-06-24T15:20:27;32.30;61.00
25450;DHT22;13371;52.080;5.624;2023-06-24T15:22:53;32.20;60.40
25450;DHT22;13371;52.080;5.624;2023-06-24T15:25:18;32.30;60.60
25450;DHT22;13371;52.080;5.624;2023-06-24T15:27:44;32.40;60.50
25450;DHT22;13371;52.080;5.624;2023-06-24T15:30:09;32.30;61.50
25450;DHT22;13371;52.080;5.624;2023-06-24T15:32:35;32.60;61.20
25450;DHT22;13371;52.080;5.624;2023-06-24T15:35:02;32.70;61.20
25450;DHT22;13371;52.080;5.624;2023-06-24T15:37:28;32.80;59.80
25450;DHT22;13371;52.080;5.624;2023-06-24T15:39:54;32.60;60.90
25450;DHT22;13371;52.080;5.624;2023-06-24T15:42:20;32.30;61.50
25450;DHT22;13371;52.080;5.624;2023-06-24T15:44:46;32.30;62.90
25450;DHT22;13371;52.080;5.624;2023-06-24T15:47:11;32.10;62.10
25450;DHT22;13371;52.080;5.624;2023-06-24T15:49:37;32.10;60.30
25450;DHT22;13371;52.080;5.624;2023-06-24T15:52:03;32.10;61.80
25450;DHT22;13371;52.080;5.624;2023-06-24T15:54:28;32.40;61.20
25450;DHT22;13371;52.080;5.624;2023-06-24T15:56:54;31.90;61.90
25450;DHT22;13371;52.080;5.624;2023-06-24T15:59:19;31.40;62.00
25450;DHT22;13371;52.080;5.624;2023-06-24T16:01:48;31.60;62.60
25450;DHT22;13371;52.080;5.624;2023-06-24T16:04:13;31.70;62.20
25450;DHT22;13371;52.080;5.624;2023-06-24T16:06:39;32.20;63.60